sensor_id;sensor_type;location;lat;lon;timestamp;pressure;altitude;pressure_sealevel;temperature;humidity
79563;BME280;69026;50.980;11.314;2023-05-10T00:00:09;98302.91;;;20.09;45.04
79563;BME280;69026;50.980;11.314;2023-05-10T00:02:38;98288.59;;;20.07;44.88
79563;BME280;69026;50.980;11.314;2023-05-10T00:05:05;98286.09;;;20.10;44.91
79563;BME280;69026;50.980;11.314;2023-05-10T00:07:31;98288.03;;;20.10;44.92
79563;BME280;69026;50.980;11.314;2023-05-10T00:09:56;98282.53;;;20.10;45.00
79563;BME280;69026;50.980;11.314;2023-05-10T00:12:22;98284.94;;;20.11;44.97
79563;BME280;69026;50.980;11.314;2023-05-10T00:14:48;98278.34;;;20.12;45.01
79563;BME280;69026;50.980;11.314;2023-05-10T00:17:14;98281.91;;;20.13;44.98
79563;BME280;69026;50.980;11.314;2023-05-10T00:19:40;98272.50;;;20.14;44.77
79563;BME280;69026;50.980;11.314;2023-05-10T00:22:06;98273.34;;;20.15;44.95
79563;BME280;69026;50.980;11.314;2023-05-10T00:24:31;98269.75;;;20.14;45.04
79563;BME280;69026;50.980;11.314;2023-05-10T00:26:57;98270.25;;;20.16;45.01
79563;BME280;69026;50.980;11.314;2023-05-10T00:29:23;98264.25;;;20.14;45.13
79563;BME280;69026;50.980;11.314;2023-05-10T00:31:49;98262.09;;;20.11;45.27
79563;BME280;69026;50.980;11.314;2023-05-10T00:34:15;98253.31;;;20.09;45.15
79563;BME280;69026;50.980;11.314;2023-05-10T00:36:41;98258.84;;;20.09;45.53
79563;BME280;69026;50.980;11.314;2023-05-10T00:39:07;98263.81;;;20.07;45.74
79563;BME280;69026;50.980;11.314;2023-05-10T00:41:33;98257.81;;;20.05;45.66
79563;BME280;69026;50.980;11.314;2023-05-10T00:44:00;98253.44;;;20.04;45.46
79563;BME280;69026;50.980;11.314;2023-05-10T00:46:28;98249.88;;;20.03;45.40
79563;BME280;69026;50.980;11.314;2023-05-10T00:48:54;98249.34;;;20.01;45.72
79563;BME280;69026;50.980;11.314;2023-05-10T00:51:20;98246.91;;;20.00;45.65
79563;BME280;69026;50.980;11.314;2023-05-10T00:53:46;98250.44;;;20.00;45.49
79563;BME280;69026;50.980;11.314;2023-05-10T00:56:12;98239.75;;;19.99;45.70
79563;BME280;69026;50.980;11.314;2023-05-10T00:58:39;98248.03;;;19.99;45.96
79563;BME280;69026;50.980;11.314;2023-05-10T01:01:06;98240.88;;;19.98;45.48
79563;BME280;69026;50.980;11.314;2023-05-10T01:03:32;98254.63;;;19.98;45.60
79563;BME280;69026;50.980;11.314;2023-05-10T01:05:58;98251.06;;;19.97;45.62
79563;BME280;69026;50.980;11.314;2023-05-10T01:08:26;98243.13;;;19.96;45.85
79563;BME280;69026;50.980;11.314;2023-05-10T01:10:52;98238.44;;;19.96;45.93
79563;BME280;69026;50.980;11.314;2023-05-10T01:15:56;98228.00;;;19.93;45.77
79563;BME280;69026;50.980;11.314;2023-05-10T01:18:22;98231.91;;;19.92;45.72
79563;BME280;69026;50.980;11.314;2023-05-10T01:21:00;98232.19;;;19.90;45.70
79563;BME280;69026;50.980;11.314;2023-05-10T01:24:27;98236.59;;;19.91;45.71
79563;BME280;69026;50.980;11.314;2023-05-10T01:35:26;98238.03;;;19.89;45.88
79563;BME280;69026;50.980;11.314;2023-05-10T01:40:36;98232.28;;;19.85;46.00
79563;BME280;69026;50.980;11.314;2023-05-10T01:43:08;98240.56;;;19.85;45.94
79563;BME280;69026;50.980;11.314;2023-05-10T01:45:50;98233.44;;;19.84;45.96
79563;BME280;69026;50.980;11.314;2023-05-10T01:48:18;98237.81;;;19.85;45.96
79563;BME280;69026;50.980;11.314;2023-05-10T01:50:46;98234.22;;;19.85;46.04
79563;BME280;69026;50.980;11.314;2023-05-10T01:53:12;98237.81;;;19.85;46.02
79563;BME280;69026;50.980;11.314;2023-05-10T01:55:44;98236.19;;;19.84;46.09
79563;BME280;69026;50.980;11.314;2023-05-10T01:58:15;98239.75;;;19.85;46.02
79563;BME280;69026;50.980;11.314;2023-05-10T02:00:44;98232.91;;;19.82;46.11
79563;BME280;69026;50.980;11.314;2023-05-10T02:03:11;98230.16;;;19.82;46.02
79563;BME280;69026;50.980;11.314;2023-05-10T02:05:41;98241.16;;;19.82;46.13
79563;BME280;69026;50.980;11.314;2023-05-10T02:08:08;98236.78;;;19.81;46.16
79563;BME280;69026;50.980;11.314;2023-05-10T02:10:36;98236.78;;;19.81;46.26
79563;BME280;69026;50.980;11.314;2023-05-10T02:13:03;98234.63;;;19.78;46.21
79563;BME280;69026;50.980;11.314;2023-05-10T02:15:32;98237.91;;;19.80;45.99
79563;BME280;69026;50.980;11.314;2023-05-10T02:17:59;98239.03;;;19.79;46.15
79563;BME280;69026;50.980;11.314;2023-05-10T02:20:26;98233.53;;;19.79;46.38
79563;BME280;69026;50.980;11.314;2023-05-10T02:22:54;98233.00;;;19.77;46.04
79563;BME280;69026;50.980;11.314;2023-05-10T02:25:22;98230.25;;;19.77;46.25
79563;BME280;69026;50.980;11.314;2023-05-10T02:27:49;98230.25;;;19.77;46.10
79563;BME280;69026;50.980;11.314;2023-05-10T02:30:17;98233.81;;;19.78;46.18
79563;BME280;69026;50.980;11.314;2023-05-10T02:32:44;98219.25;;;19.77;46.44
79563;BME280;69026;50.980;11.314;2023-05-10T02:35:11;98223.94;;;19.77;46.10
79563;BME280;69026;50.980;11.314;2023-05-10T02:37:38;98222.81;;;19.78;46.29
79563;BME280;69026;50.980;11.314;2023-05-10T02:40:06;98224.75;;;19.77;46.13
79563;BME280;69026;50.980;11.314;2023-05-10T02:42:35;98223.94;;;19.77;46.28
79563;BME280;69026;50.980;11.314;2023-05-10T02:45:10;98227.78;;;19.76;46.16
79563;BME280;69026;50.980;11.314;2023-05-10T02:47:37;98219.84;;;19.74;46.47
79563;BME280;69026;50.980;11.314;2023-05-10T02:50:03;98225.84;;;19.76;46.57
79563;BME280;69026;50.980;11.314;2023-05-10T02:52:39;98220.34;;;19.76;46.19
79563;BME280;69026;50.980;11.314;2023-05-10T02:55:05;98221.47;;;19.75;46.40
79563;BME280;69026;50.980;11.314;2023-05-10T02:57:33;98219.03;;;19.74;46.33
79563;BME280;69026;50.980;11.314;2023-05-10T03:00:00;98216.59;;;19.72;46.36
79563;BME280;69026;50.980;11.314;2023-05-10T03:02:30;98222.91;;;19.73;46.20
79563;BME280;69026;50.980;11.314;2023-05-10T03:04:56;98225.34;;;19.74;46.20
79563;BME280;69026;50.980;11.314;2023-05-10T03:07:22;98228.41;;;19.73;46.52
79563;BME280;69026;50.980;11.314;2023-05-10T03:09:49;98223.72;;;19.73;46.46
79563;BME280;69026;50.980;11.314;2023-05-10T03:17:57;98225.94;;;19.71;46.31
79563;BME280;69026;50.980;11.314;2023-05-10T03:20:42;98234.19;;;19.71;46.61
79563;BME280;69026;50.980;11.314;2023-05-10T03:23:43;98223.19;;;19.71;46.60
79563;BME280;69026;50.980;11.314;2023-05-10T03:26:02;98244.41;;;19.70;46.45
79563;BME280;69026;50.980;11.314;2023-05-10T03:28:31;98231.44;;;19.71;46.48
79563;BME280;69026;50.980;11.314;2023-05-10T03:30:59;98229.03;;;19.69;46.34
79563;BME280;69026;50.980;11.314;2023-05-10T03:33:25;98225.94;;;19.71;46.42
79563;BME280;69026;50.980;11.314;2023-05-10T03:35:51;98226.75;;;19.72;46.36
79563;BME280;69026;50.980;11.314;2023-05-10T03:38:17;98225.94;;;19.71;46.45
79563;BME280;69026;50.980;11.314;2023-05-10T03:40:43;98229.84;;;19.70;46.55
79563;BME280;69026;50.980;11.314;2023-05-10T03:43:08;98235.34;;;19.70;46.63
79563;BME280;69026;50.980;11.314;2023-05-10T03:45:34;98229.31;;;19.68;46.49
79563;BME280;69026;50.980;11.314;2023-05-10T03:48:01;98233.69;;;19.69;46.57
79563;BME280;69026;50.980;11.314;2023-05-10T03:50:27;98239.19;;;19.69;46.59
79563;BME280;69026;50.980;11.314;2023-05-10T03:52:52;98233.69;;;19.69;46.54
79563;BME280;69026;50.980;11.314;2023-05-10T03:55:18;98232.06;;;19.68;46.45
79563;BME280;69026;50.980;11.314;2023-05-10T03:57:44;98232.88;;;19.68;46.53
79563;BME280;69026;50.980;11.314;2023-05-10T04:00:10;98234.28;;;19.66;46.60
79563;BME280;69026;50.980;11.314;2023-05-10T04:02:42;98235.88;;;19.67;46.54
79563;BME280;69026;50.980;11.314;2023-05-10T04:05:12;98238.63;;;19.67;46.85
79563;BME280;69026;50.980;11.314;2023-05-10T04:07:38;98235.88;;;19.67;46.81
79563;BME280;69026;50.980;11.314;2023-05-10T04:10:04;98233.13;;;19.67;46.81
79563;BME280;69026;50.980;11.314;2023-05-10T04:12:30;98234.81;;;19.68;46.68
79563;BME280;69026;50.980;11.314;2023-05-10T04:14:55;98238.63;;;19.67;46.85
79563;BME280;69026;50.980;11.314;2023-05-10T04:17:21;98237.56;;;19.68;46.86
79563;BME280;69026;50.980;11.314;2023-05-10T04:19:47;98240.31;;;19.68;46.73
79563;BME280;69026;50.980;11.314;2023-05-10T04:22:13;98233.97;;;19.67;46.66
79563;BME280;69026;50.980;11.314;2023-05-10T04:24:39;98243.06;;;19.68;46.77
79563;BME280;69026;50.980;11.314;2023-05-10T04:27:05;98235.88;;;19.67;46.58
79563;BME280;69026;50.980;11.314;2023-05-10T04:29:30;98243.06;;;19.68;46.69
79563;BME280;69026;50.980;11.314;2023-05-10T04:31:56;98238.63;;;19.67;46.70
79563;BME280;69026;50.980;11.314;2023-05-10T04:34:22;98242.81;;;19.64;46.69
79563;BME280;69026;50.980;11.314;2023-05-10T04:36:48;98241.38;;;19.67;46.58
79563;BME280;69026;50.980;11.314;2023-05-10T04:39:14;98237.56;;;19.68;46.84
79563;BME280;69026;50.980;11.314;2023-05-10T04:41:39;98243.88;;;19.68;46.92
79563;BME280;69026;50.980;11.314;2023-05-10T04:44:05;98247.44;;;19.69;46.73
79563;BME280;69026;50.980;11.314;2023-05-10T04:46:31;98248.56;;;19.68;46.65
79563;BME280;69026;50.980;11.314;2023-05-10T04:48:57;98244.69;;;19.69;46.67
79563;BME280;69026;50.980;11.314;2023-05-10T04:51:23;98238.16;;;19.65;46.90
79563;BME280;69026;50.980;11.314;2023-05-10T04:53:49;98252.13;;;19.68;46.71
79563;BME280;69026;50.980;11.314;2023-05-10T04:56:15;98243.88;;;19.68;46.71
79563;BME280;69026;50.980;11.314;2023-05-10T04:58:42;98250.19;;;19.69;46.81
79563;BME280;69026;50.980;11.314;2023-05-10T05:01:08;98248.56;;;19.68;46.86
79563;BME280;69026;50.980;11.314;2023-05-10T05:03:34;98251.31;;;19.68;46.85
79563;BME280;69026;50.980;11.314;2023-05-10T05:06:00;98251.84;;;19.70;46.87
79563;BME280;69026;50.980;11.314;2023-05-10T05:08:26;98240.84;;;19.70;46.91
79563;BME280;69026;50.980;11.314;2023-05-10T05:10:52;98252.94;;;19.69;46.73
79563;BME280;69026;50.980;11.314;2023-05-10T05:13:18;98255.69;;;19.69;46.73
79563;BME280;69026;50.980;11.314;2023-05-10T05:15:44;98255.69;;;19.69;46.85
79563;BME280;69026;50.980;11.314;2023-05-10T05:18:10;98263.97;;;19.69;46.84
79563;BME280;69026;50.980;11.314;2023-05-10T05:20:35;98256.53;;;19.69;46.72
79563;BME280;69026;50.980;11.314;2023-05-10T05:23:02;98259.28;;;19.69;46.96
79563;BME280;69026;50.980;11.314;2023-05-10T05:25:27;98258.44;;;19.69;46.73
79563;BME280;69026;50.980;11.314;2023-05-10T05:27:53;98265.59;;;19.70;46.92
79563;BME280;69026;50.980;11.314;2023-05-10T05:30:19;98261.19;;;19.69;46.85
79563;BME280;69026;50.980;11.314;2023-05-10T05:32:45;98277.72;;;19.69;47.03
79563;BME280;69026;50.980;11.314;2023-05-10T05:35:12;98277.72;;;19.69;46.98
79563;BME280;69026;50.980;11.314;2023-05-10T05:37:38;98275.03;;;19.64;46.80
79563;BME280;69026;50.980;11.314;2023-05-10T05:40:05;98276.91;;;19.68;47.10
79563;BME280;69026;50.980;11.314;2023-05-10T05:42:32;98284.06;;;19.69;47.00
79563;BME280;69026;50.980;11.314;2023-05-10T05:44:58;98282.13;;;19.70;46.92
79563;BME280;69026;50.980;11.314;2023-05-10T05:47:23;98290.38;;;19.70;46.86
79563;BME280;69026;50.980;11.314;2023-05-10T05:49:49;98297.50;;;19.71;47.06
79563;BME280;69026;50.980;11.314;2023-05-10T05:52:15;98290.38;;;19.70;46.95
79563;BME280;69026;50.980;11.314;2023-05-10T05:54:41;98294.75;;;19.71;46.83
79563;BME280;69026;50.980;11.314;2023-05-10T05:57:07;98296.97;;;19.69;46.87
79563;BME280;69026;50.980;11.314;2023-05-10T05:59:32;98307.69;;;19.70;46.96
79563;BME280;69026;50.980;11.314;2023-05-10T06:01:58;98306.28;;;19.73;46.94
79563;BME280;69026;50.980;11.314;2023-05-10T06:04:24;98312.91;;;19.72;47.12
79563;BME280;69026;50.980;11.314;2023-05-10T06:06:50;98298.16;;;19.63;46.91
79563;BME280;69026;50.980;11.314;2023-05-10T06:09:16;98312.06;;;19.72;46.84
79563;BME280;69026;50.980;11.314;2023-05-10T06:11:41;98310.97;;;19.73;46.91
79563;BME280;69026;50.980;11.314;2023-05-10T06:14:07;98318.41;;;19.72;47.05
79563;BME280;69026;50.980;11.314;2023-05-10T06:16:34;98317.88;;;19.70;46.80
79563;BME280;69026;50.980;11.314;2023-05-10T06:19:00;98319.50;;;19.71;47.06
79563;BME280;69026;50.980;11.314;2023-05-10T06:21:25;98322.25;;;19.71;46.93
79563;BME280;69026;50.980;11.314;2023-05-10T06:23:51;98332.16;;;19.72;47.26
79563;BME280;69026;50.980;11.314;2023-05-10T06:26:17;98332.97;;;19.73;47.09
79563;BME280;69026;50.980;11.314;2023-05-10T06:28:43;98335.41;;;19.74;47.22
79563;BME280;69026;50.980;11.314;2023-05-10T06:31:09;98340.91;;;19.74;47.16
79563;BME280;69026;50.980;11.314;2023-05-10T06:33:36;98338.50;;;19.73;46.81
79563;BME280;69026;50.980;11.314;2023-05-10T06:36:05;98346.94;;;19.76;46.91
79563;BME280;69026;50.980;11.314;2023-05-10T06:38:31;98344.19;;;19.76;47.00
79563;BME280;69026;50.980;11.314;2023-05-10T06:40:56;98348.59;;;19.77;47.02
79563;BME280;69026;50.980;11.314;2023-05-10T06:43:22;98345.53;;;19.79;46.91
79563;BME280;69026;50.980;11.314;2023-05-10T06:45:49;98343.63;;;19.79;46.83
79563;BME280;69026;50.980;11.314;2023-05-10T06:48:15;98343.00;;;19.82;47.49
79563;BME280;69026;50.980;11.314;2023-05-10T06:50:41;98350.97;;;19.84;47.56
79563;BME280;69026;50.980;11.314;2023-05-10T06:53:07;98354.22;;;19.86;47.77
79563;BME280;69026;50.980;11.314;2023-05-10T06:55:33;98346.28;;;19.84;48.15
79563;BME280;69026;50.980;11.314;2023-05-10T06:57:58;98356.16;;;19.85;47.88
79563;BME280;69026;50.980;11.314;2023-05-10T07:00:24;98357.91;;;19.81;48.20
79563;BME280;69026;50.980;11.314;2023-05-10T07:02:50;98360.56;;;19.86;48.54
79563;BME280;69026;50.980;11.314;2023-05-10T07:05:16;98359.72;;;19.86;48.70
79563;BME280;69026;50.980;11.314;2023-05-10T07:07:42;98364.50;;;19.80;48.83
79563;BME280;69026;50.980;11.314;2023-05-10T07:10:08;98369.03;;;19.71;49.33
79563;BME280;69026;50.980;11.314;2023-05-10T07:12:34;98372.47;;;19.63;49.48
79563;BME280;69026;50.980;11.314;2023-05-10T07:15:00;98376.31;;;19.62;49.88
79563;BME280;69026;50.980;11.314;2023-05-10T07:17:26;98373.03;;;19.60;50.31
79563;BME280;69026;50.980;11.314;2023-05-10T07:19:52;98377.81;;;19.54;50.45
79563;BME280;69026;50.980;11.314;2023-05-10T07:22:18;98377.28;;;19.52;50.63
79563;BME280;69026;50.980;11.314;2023-05-10T07:24:44;98375.13;;;19.49;50.40
79563;BME280;69026;50.980;11.314;2023-05-10T07:27:09;98382.56;;;19.48;50.69
79563;BME280;69026;50.980;11.314;2023-05-10T07:29:36;98391.72;;;19.44;51.26
79563;BME280;69026;50.980;11.314;2023-05-10T07:32:01;98383.31;;;19.35;51.84
79563;BME280;69026;50.980;11.314;2023-05-10T07:34:27;98389.47;;;19.27;52.12
79563;BME280;69026;50.980;11.314;2023-05-10T07:36:54;98385.16;;;19.21;52.21
79563;BME280;69026;50.980;11.314;2023-05-10T07:39:19;98389.91;;;19.15;52.61
79563;BME280;69026;50.980;11.314;2023-05-10T07:41:48;98395.63;;;19.19;53.27
79563;BME280;69026;50.980;11.314;2023-05-10T07:44:14;98398.22;;;19.10;53.59
79563;BME280;69026;50.980;11.314;2023-05-10T07:46:40;98397.59;;;18.94;53.81
79563;BME280;69026;50.980;11.314;2023-05-10T07:49:06;98401.03;;;18.81;54.64
79563;BME280;69026;50.980;11.314;2023-05-10T07:51:31;98403.34;;;18.69;54.88
79563;BME280;69026;50.980;11.314;2023-05-10T07:53:57;98402.94;;;18.56;55.43
79563;BME280;69026;50.980;11.314;2023-05-10T07:56:25;98399.19;;;18.47;56.23
79563;BME280;69026;50.980;11.314;2023-05-10T07:58:54;98405.81;;;18.41;56.48
79563;BME280;69026;50.980;11.314;2023-05-10T08:01:19;98403.66;;;18.38;56.71
79563;BME280;69026;50.980;11.314;2023-05-10T08:03:45;98409.19;;;18.33;57.06
79563;BME280;69026;50.980;11.314;2023-05-10T08:06:11;98407.00;;;18.35;57.19
79563;BME280;69026;50.980;11.314;2023-05-10T08:08:37;98407.81;;;18.35;57.18
79563;BME280;69026;50.980;11.314;2023-05-10T08:11:04;98415.22;;;18.35;57.31
79563;BME280;69026;50.980;11.314;2023-05-10T08:13:29;98409.75;;;18.35;57.31
79563;BME280;69026;50.980;11.314;2023-05-10T08:15:56;98404.25;;;18.35;57.47
79563;BME280;69026;50.980;11.314;2023-05-10T08:18:22;98417.38;;;18.38;57.49
79563;BME280;69026;50.980;11.314;2023-05-10T08:20:48;98407.53;;;18.37;57.64
79563;BME280;69026;50.980;11.314;2023-05-10T08:23:14;98415.78;;;18.32;57.93
79563;BME280;69026;50.980;11.314;2023-05-10T08:25:40;98416.09;;;18.30;58.34
79563;BME280;69026;50.980;11.314;2023-05-10T08:28:06;98416.69;;;18.22;58.44
79563;BME280;69026;50.980;11.314;2023-05-10T08:30:31;98422.78;;;18.19;58.90
79563;BME280;69026;50.980;11.314;2023-05-10T08:32:57;98425.25;;;18.20;59.13
79563;BME280;69026;50.980;11.314;2023-05-10T08:35:23;98425.47;;;18.24;58.56
79563;BME280;69026;50.980;11.314;2023-05-10T08:37:50;98429.28;;;18.28;58.59
79563;BME280;69026;50.980;11.314;2023-05-10T08:40:19;98425.97;;;18.31;58.65
79563;BME280;69026;50.980;11.314;2023-05-10T08:42:56;98423.47;;;18.35;58.28
79563;BME280;69026;50.980;11.314;2023-05-10T08:45:24;98427.84;;;18.36;58.06
79563;BME280;69026;50.980;11.314;2023-05-10T08:47:51;98431.13;;;18.38;57.81
79563;BME280;69026;50.980;11.314;2023-05-10T08:50:20;98434.72;;;18.33;57.85
79563;BME280;69026;50.980;11.314;2023-05-10T08:52:48;98431.72;;;18.35;57.15
79563;BME280;69026;50.980;11.314;2023-05-10T08:55:16;98442.09;;;18.38;56.26
79563;BME280;69026;50.980;11.314;2023-05-10T08:57:42;98438.28;;;18.39;56.79
79563;BME280;69026;50.980;11.314;2023-05-10T09:00:08;98444.56;;;18.39;57.56
79563;BME280;69026;50.980;11.314;2023-05-10T09:02:36;98445.44;;;18.35;57.88
79563;BME280;69026;50.980;11.314;2023-05-10T09:05:03;98448.75;;;18.32;58.34
79563;BME280;69026;50.980;11.314;2023-05-10T09:07:30;98446.91;;;18.22;58.67
79563;BME280;69026;50.980;11.314;2023-05-10T09:09:56;98453.19;;;18.28;58.83
79563;BME280;69026;50.980;11.314;2023-05-10T09:12:23;98458.69;;;18.28;58.79
79563;BME280;69026;50.980;11.314;2023-05-10T09:14:50;98465.25;;;18.27;58.19
79563;BME280;69026;50.980;11.314;2023-05-10T09:17:16;98466.88;;;18.33;58.84
79563;BME280;69026;50.980;11.314;2023-05-10T09:19:42;98464.66;;;18.35;58.66
79563;BME280;69026;50.980;11.314;2023-05-10T09:22:08;98466.81;;;18.38;58.60
79563;BME280;69026;50.980;11.314;2023-05-10T09:24:35;98477.19;;;18.46;58.42
79563;BME280;69026;50.980;11.314;2023-05-10T09:27:02;98475.44;;;18.55;58.41
79563;BME280;69026;50.980;11.314;2023-05-10T09:29:42;98475.16;;;18.57;58.22
79563;BME280;69026;50.980;11.314;2023-05-10T09:32:08;98474.88;;;18.58;57.99
79563;BME280;69026;50.980;11.314;2023-05-10T09:34:34;98484.47;;;18.61;57.96
79563;BME280;69026;50.980;11.314;2023-05-10T09:37:05;98481.94;;;18.64;57.89
79563;BME280;69026;50.980;11.314;2023-05-10T09:42:02;98480.28;;;18.69;57.33
79563;BME280;69026;50.980;11.314;2023-05-10T09:44:29;98484.09;;;18.73;57.42
79563;BME280;69026;50.980;11.314;2023-05-10T09:46:56;98490.13;;;18.75;57.15
79563;BME280;69026;50.980;11.314;2023-05-10T09:49:22;98496.16;;;18.77;57.15
79563;BME280;69026;50.980;11.314;2023-05-10T09:52:00;98491.19;;;18.79;56.78
79563;BME280;69026;50.980;11.314;2023-05-10T09:54:25;98497.22;;;18.81;56.86
79563;BME280;69026;50.980;11.314;2023-05-10T09:56:51;98489.56;;;18.78;56.55
79563;BME280;69026;50.980;11.314;2023-05-10T09:59:18;98496.69;;;18.79;56.40
79563;BME280;69026;50.980;11.314;2023-05-10T10:01:56;98498.63;;;18.78;56.28
79563;BME280;69026;50.980;11.314;2023-05-10T10:04:22;98495.59;;;18.80;56.40
79563;BME280;69026;50.980;11.314;2023-05-10T10:07:06;98497.53;;;18.79;56.53
79563;BME280;69026;50.980;11.314;2023-05-10T10:09:33;98500.56;;;18.78;56.43
79563;BME280;69026;50.980;11.314;2023-05-10T10:12:01;98495.09;;;18.73;56.47
79563;BME280;69026;50.980;11.314;2023-05-10T10:14:28;98490.41;;;18.73;56.64
79563;BME280;69026;50.980;11.314;2023-05-10T10:16:54;98490.13;;;18.75;56.83
79563;BME280;69026;50.980;11.314;2023-05-10T10:19:21;98499.16;;;18.80;56.51
79563;BME280;69026;50.980;11.314;2023-05-10T10:21:49;98501.91;;;18.80;56.61
79563;BME280;69026;50.980;11.314;2023-05-10T10:24:15;98508.53;;;18.79;56.47
79563;BME280;69026;50.980;11.314;2023-05-10T10:26:42;98521.41;;;18.79;56.13
79563;BME280;69026;50.980;11.314;2023-05-10T10:34:36;98520.78;;;18.53;56.81
79563;BME280;69026;50.980;11.314;2023-05-10T10:37:05;98519.50;;;18.45;56.89
79563;BME280;69026;50.980;11.314;2023-05-10T10:39:32;98514.31;;;18.38;57.23
79563;BME280;69026;50.980;11.314;2023-05-10T10:41:58;98522.88;;;18.37;57.23
